createdAt,value
2022-09-20T00:01:25.019Z,71.80
2022-09-20T00:03:56.460Z,71.80
2022-09-20T00:06:30.574Z,72.00
2022-09-20T00:08:59.573Z,72.10
2022-09-20T00:11:30.348Z,72.30
2022-09-20T00:14:00.493Z,72.50
2022-09-20T00:16:31.790Z,73.10
2022-09-20T00:19:02.771Z,72.80
2022-09-20T00:21:31.577Z,72.80
2022-09-20T00:23:58.955Z,71.30
2022-09-20T00:26:28.313Z,72.60
2022-09-20T00:28:57.633Z,72.70
2022-09-20T00:31:24.466Z,72.90
2022-09-20T00:34:14.787Z,73.20
2022-09-20T00:36:41.909Z,73.40
2022-09-20T00:39:13.360Z,73.70
2022-09-20T00:41:40.178Z,73.80
2022-09-20T00:44:40.673Z,73.90
2022-09-20T00:47:21.784Z,73.80
2022-09-20T00:49:53.302Z,74.20
2022-09-20T00:52:20.602Z,74.40
2022-09-20T00:54:48.579Z,74.40
2022-09-20T00:57:15.653Z,74.50
2022-09-20T00:59:47.992Z,74.60
2022-09-20T01:02:25.848Z,74.70
2022-09-20T01:04:53.075Z,74.60
2022-09-20T01:07:22.489Z,74.70
2022-09-20T01:09:50.498Z,74.70
2022-09-20T01:12:23.445Z,74.90
2022-09-20T01:14:53.244Z,74.90
2022-09-20T01:17:25.254Z,75.60
2022-09-20T01:20:04.967Z,75.10
2022-09-20T01:23:29.165Z,75.20
2022-09-20T01:26:17.012Z,74.30
2022-09-20T01:28:50.547Z,75.10
2022-09-20T01:31:34.064Z,75.00
2022-09-20T01:34:21.302Z,74.90
2022-09-20T01:37:19.245Z,74.90
2022-09-20T01:40:13.299Z,75.10
2022-09-20T01:42:56.257Z,74.70
2022-09-20T01:45:32.400Z,75.10
2022-09-20T01:48:39.468Z,75.00
2022-09-20T01:51:43.107Z,74.70
2022-09-20T01:54:58.299Z,75.20
2022-09-20T01:57:52.192Z,74.70
2022-09-20T02:00:31.814Z,75.50
2022-09-20T02:03:45.714Z,75.10
2022-09-20T02:06:39.463Z,74.70
2022-09-20T02:09:39.331Z,75.60
2022-09-20T02:12:39.829Z,75.50
2022-09-20T02:15:36.402Z,75.40
2022-09-20T02:18:42.887Z,75.80
2022-09-20T02:21:25.676Z,75.20
2022-09-20T02:24:20.960Z,75.70
2022-09-20T02:27:17.894Z,75.90
2022-09-20T02:30:32.497Z,75.60
2022-09-20T02:33:01.988Z,75.20
2022-09-20T02:35:47.181Z,76.00
2022-09-20T02:38:46.773Z,76.10
2022-09-20T02:41:57.367Z,75.50
2022-09-20T02:44:39.183Z,76.10
2022-09-20T02:47:14.858Z,76.40
2022-09-20T02:50:25.053Z,76.50
2022-09-20T02:53:11.522Z,76.20
2022-09-20T02:56:07.193Z,76.40
2022-09-20T02:59:03.421Z,76.40
2022-09-20T03:02:06.039Z,75.90
2022-09-20T03:05:19.401Z,76.00
2022-09-20T03:08:24.409Z,75.80
2022-09-20T03:11:31.755Z,75.90
2022-09-20T03:14:37.749Z,75.90
2022-09-20T03:17:56.457Z,76.20
2022-09-20T03:20:31.920Z,76.00
2022-09-20T03:23:26.791Z,76.70
2022-09-20T03:26:23.473Z,76.60
2022-09-20T03:29:08.661Z,76.20
2022-09-20T03:32:28.304Z,76.70
2022-09-20T03:35:29.343Z,76.40
2022-09-20T03:38:08.267Z,76.50
2022-09-20T03:41:09.034Z,77.20
2022-09-20T03:43:53.993Z,77.10
2022-09-20T03:46:29.080Z,77.30
2022-09-20T03:49:04.575Z,76.90
2022-09-20T03:52:17.953Z,76.80
2022-09-20T03:54:47.428Z,76.60
2022-09-20T03:57:39.453Z,77.20
2022-09-20T04:00:54.203Z,76.20
2022-09-20T04:04:05.769Z,76.50
2022-09-20T04:07:12.999Z,76.30
2022-09-20T04:10:01.130Z,76.80
2022-09-20T04:13:03.342Z,77.00
2022-09-20T04:16:06.504Z,76.60
2022-09-20T04:18:52.695Z,76.80
2022-09-20T04:21:48.547Z,77.40
2022-09-20T04:25:13.352Z,76.40
2022-09-20T04:28:05.895Z,77.30
2022-09-20T04:30:44.096Z,77.00
2022-09-20T04:33:28.296Z,77.20
2022-09-20T04:36:37.528Z,76.50
2022-09-20T04:39:07.406Z,76.00
2022-09-20T04:41:49.811Z,77.60
2022-09-20T04:44:35.405Z,78.00
2022-09-20T04:47:59.158Z,77.40
2022-09-20T04:50:52.357Z,76.10
2022-09-20T04:54:21.510Z,76.30
2022-09-20T04:57:25.190Z,76.20
2022-09-20T05:00:11.508Z,75.80
2022-09-20T05:03:27.694Z,76.60
2022-09-20T05:07:00.461Z,76.50
2022-09-20T05:10:07.282Z,76.00
2022-09-20T05:13:13.901Z,76.90
2022-09-20T05:16:08.613Z,76.40
2022-09-20T05:18:44.875Z,77.50
2022-09-20T05:21:47.676Z,78.40
2022-09-20T05:24:44.118Z,76.90
2022-09-20T05:27:52.996Z,77.70
2022-09-20T05:30:31.291Z,77.40
2022-09-20T05:33:18.141Z,78.30
2022-09-20T05:36:18.152Z,79.00
2022-09-20T05:38:58.024Z,77.30
2022-09-20T05:41:58.338Z,78.30
2022-09-20T05:44:47.532Z,76.90
2022-09-20T05:47:50.278Z,79.00
2022-09-20T05:51:01.879Z,77.80
2022-09-20T05:54:09.187Z,77.50
2022-09-20T05:57:25.594Z,76.60
2022-09-20T06:00:12.359Z,76.30
2022-09-20T06:03:27.892Z,79.00
2022-09-20T06:06:17.900Z,77.40
2022-09-20T06:09:29.216Z,79.00
2022-09-20T06:12:20.378Z,77.10
2022-09-20T06:15:01.823Z,77.40
2022-09-20T06:17:37.747Z,78.60
2022-09-20T06:20:45.782Z,78.80
2022-09-20T06:23:13.003Z,76.00
2022-09-20T06:25:43.607Z,79.20
2022-09-20T06:28:22.509Z,79.30
2022-09-20T06:30:52.882Z,77.40
2022-09-20T06:33:24.767Z,79.00
2022-09-20T06:36:34.782Z,79.00
2022-09-20T06:39:23.280Z,77.00
2022-09-20T06:41:51.392Z,79.10
2022-09-20T06:44:18.273Z,79.10
2022-09-20T06:46:45.081Z,79.30
2022-09-20T06:49:11.990Z,79.30
2022-09-20T06:51:40.097Z,79.30
2022-09-20T06:54:14.995Z,78.80
2022-09-20T06:56:44.899Z,78.60
2022-09-20T06:59:12.833Z,78.70
2022-09-20T07:01:40.291Z,79.00
2022-09-20T07:04:07.436Z,79.20
2022-09-20T07:06:34.558Z,79.20
2022-09-20T07:09:01.661Z,79.30
2022-09-20T07:11:28.538Z,79.50
2022-09-20T07:13:58.229Z,79.20
2022-09-20T07:16:26.404Z,78.80
2022-09-20T07:18:53.375Z,78.90
2022-09-20T07:21:21.911Z,78.90
2022-09-20T07:23:49.133Z,78.90
2022-09-20T07:26:22.031Z,78.90
2022-09-20T07:28:49.853Z,78.60
2022-09-20T07:31:19.260Z,79.30
2022-09-20T07:33:46.568Z,79.00
2022-09-20T07:36:14.009Z,78.60
2022-09-20T07:38:43.103Z,78.40
2022-09-20T07:41:10.669Z,78.80
2022-09-20T07:43:37.633Z,79.30
2022-09-20T07:46:04.891Z,78.90
2022-09-20T07:48:35.222Z,79.20
2022-09-20T07:51:11.662Z,78.80
2022-09-20T07:53:40.156Z,78.40
2022-09-20T07:56:11.599Z,77.00
2022-09-20T07:58:39.426Z,76.20
2022-09-20T08:01:10.542Z,75.20
2022-09-20T08:03:37.823Z,74.40
2022-09-20T08:06:16.442Z,75.20
2022-09-20T08:08:43.520Z,75.50
2022-09-20T08:11:17.222Z,76.20
2022-09-20T08:14:06.923Z,77.40
2022-09-20T08:16:47.377Z,78.40
2022-09-20T08:19:23.263Z,78.40
2022-09-20T08:21:53.806Z,78.60
2022-09-20T08:24:21.455Z,79.80
2022-09-20T08:26:48.742Z,80.40
2022-09-20T08:29:15.556Z,81.10
2022-09-20T08:31:42.765Z,81.40
2022-09-20T08:34:12.923Z,81.80
2022-09-20T08:36:45.392Z,81.60
2022-09-20T08:42:42.043Z,82.10
2022-09-20T08:45:22.167Z,78.80
2022-09-20T08:48:02.101Z,78.30
2022-09-20T08:50:29.144Z,79.80
2022-09-20T08:53:04.878Z,80.30
2022-09-20T08:55:36.817Z,79.70
2022-09-20T08:58:08.405Z,79.30
2022-09-20T09:00:38.442Z,79.00
2022-09-20T09:03:12.184Z,79.00
2022-09-20T09:05:53.995Z,79.00
2022-09-20T09:08:27.193Z,79.00
2022-09-20T09:10:57.274Z,80.70
2022-09-20T09:13:32.869Z,81.80
2022-09-20T09:16:06.848Z,81.50
2022-09-20T09:18:39.761Z,81.40
2022-09-20T09:21:10.434Z,81.10
2022-09-20T09:23:51.878Z,81.80
2022-09-20T09:26:25.816Z,81.10
2022-09-20T09:29:17.870Z,80.30
2022-09-20T09:31:49.115Z,77.60
2022-09-20T09:34:30.586Z,82.50
2022-09-20T09:36:58.388Z,80.90
2022-09-20T09:39:37.967Z,82.80
2022-09-20T09:42:23.717Z,80.10
2022-09-20T09:44:50.551Z,77.40
2022-09-20T09:47:29.159Z,81.80
2022-09-20T09:50:01.866Z,78.50
2022-09-20T09:52:33.343Z,85.30
2022-09-20T09:55:05.638Z,89.30
2022-09-20T09:57:58.545Z,90.20
2022-09-20T10:00:27.316Z,84.10
2022-09-20T10:03:31.820Z,90.40
2022-09-20T10:07:01.972Z,78.20
2022-09-20T10:09:53.589Z,74.20
2022-09-20T10:12:35.132Z,76.80
2022-09-20T10:15:39.828Z,71.20
2022-09-20T10:18:34.520Z,72.60
2022-09-20T10:21:28.568Z,72.20
2022-09-20T10:24:22.968Z,78.50
2022-09-20T10:27:05.786Z,76.00
2022-09-20T10:30:11.372Z,78.80
2022-09-20T10:33:24.646Z,72.90
2022-09-20T10:36:20.926Z,73.80
2022-09-20T10:39:00.231Z,77.70
2022-09-20T10:42:14.303Z,75.40
2022-09-20T10:44:57.707Z,69.60
2022-09-20T10:47:41.650Z,75.70
2022-09-20T10:50:33.971Z,74.00
2022-09-20T10:53:23.055Z,68.70
2022-09-20T10:56:04.581Z,64.80
2022-09-20T10:58:46.623Z,74.30
2022-09-20T11:01:58.554Z,75.90
2022-09-20T11:05:18.615Z,68.00
2022-09-20T11:08:03.720Z,74.30
2022-09-20T11:10:43.716Z,68.70
2022-09-20T11:13:45.746Z,71.30
2022-09-20T11:16:29.364Z,67.20
2022-09-20T11:19:33.987Z,67.50
2022-09-20T11:22:17.199Z,66.30
2022-09-20T11:25:18.041Z,67.90
2022-09-20T11:27:58.089Z,63.20
2022-09-20T11:30:25.472Z,69.90
2022-09-20T11:33:27.616Z,72.00
2022-09-20T11:36:11.749Z,65.00
2022-09-20T11:38:56.972Z,63.90
2022-09-20T11:41:31.711Z,64.30
2022-09-20T11:44:14.201Z,69.50
2022-09-20T11:46:52.316Z,65.50
2022-09-20T11:49:49.644Z,68.60
2022-09-20T11:52:30.179Z,69.80
2022-09-20T11:55:38.558Z,69.80
2022-09-20T11:58:13.581Z,66.20
2022-09-20T12:00:45.015Z,71.80
2022-09-20T12:03:44.265Z,72.10
2022-09-20T12:06:34.384Z,64.60
2022-09-20T12:09:30.623Z,59.10
2022-09-20T12:11:59.532Z,53.60
2022-09-20T12:14:32.274Z,68.30
2022-09-20T12:16:59.127Z,69.80
2022-09-20T12:19:34.743Z,70.40
2022-09-20T12:22:01.823Z,62.90
2022-09-20T12:24:33.911Z,70.50
2022-09-20T12:27:22.459Z,68.10
2022-09-20T12:30:21.705Z,69.60
2022-09-20T12:33:01.089Z,62.20
2022-09-20T12:35:36.984Z,69.60
2022-09-20T12:38:26.629Z,62.00
2022-09-20T12:41:15.056Z,59.60
2022-09-20T12:44:06.550Z,60.90
2022-09-20T12:46:49.627Z,58.80
2022-09-20T12:49:48.156Z,64.10
2022-09-20T12:52:57.899Z,63.50
2022-09-20T12:55:27.616Z,62.30
2022-09-20T12:58:15.418Z,65.90
2022-09-20T13:00:48.613Z,60.90
2022-09-20T13:03:15.358Z,68.70
2022-09-20T13:05:52.592Z,69.40
2022-09-20T13:08:31.500Z,67.50
2022-09-20T13:11:07.249Z,59.00
2022-09-20T13:13:51.616Z,58.80
2022-09-20T13:16:37.676Z,58.80
2022-09-20T13:19:18.266Z,60.80
2022-09-20T13:22:19.018Z,60.60
2022-09-20T13:24:51.724Z,57.20
2022-09-20T13:27:25.973Z,65.50
2022-09-20T13:29:53.478Z,66.40
2022-09-20T13:32:30.193Z,69.30
2022-09-20T13:35:24.156Z,66.50
2022-09-20T13:37:57.157Z,62.20
2022-09-20T13:40:47.780Z,67.30
2022-09-20T13:43:40.518Z,62.40
2022-09-20T13:46:12.665Z,65.00
2022-09-20T13:48:40.311Z,68.10
2022-09-20T13:51:19.888Z,67.60
2022-09-20T13:53:49.232Z,56.50
2022-09-20T13:56:29.973Z,65.00
2022-09-20T13:59:00.978Z,63.30
2022-09-20T14:01:34.681Z,65.90
2022-09-20T14:04:09.115Z,60.20
2022-09-20T14:06:36.607Z,63.00
2022-09-20T14:09:11.301Z,65.90
2022-09-20T14:11:40.054Z,64.10
2022-09-20T14:14:09.657Z,63.90
2022-09-20T14:16:45.171Z,64.30
2022-09-20T14:19:16.672Z,61.80
2022-09-20T14:21:44.262Z,62.10
2022-09-20T14:24:25.990Z,63.50
2022-09-20T14:27:22.037Z,64.40
2022-09-20T14:29:52.538Z,61.20
2022-09-20T14:32:19.269Z,65.50
2022-09-20T14:35:04.997Z,67.00
2022-09-20T14:38:10.263Z,61.90
2022-09-20T14:40:47.173Z,67.20
2022-09-20T14:43:31.316Z,73.80
2022-09-20T14:46:03.278Z,68.20
2022-09-20T14:48:45.321Z,84.80
2022-09-20T14:51:23.389Z,79.40
2022-09-20T14:54:13.601Z,68.30
2022-09-20T14:56:49.357Z,77.10
2022-09-20T14:59:18.899Z,63.50
2022-09-20T15:02:00.727Z,66.80
2022-09-20T15:04:28.669Z,52.60
2022-09-20T15:07:00.140Z,60.30
2022-09-20T15:09:27.288Z,57.20
2022-09-20T15:12:16.325Z,53.40
2022-09-20T15:14:43.296Z,45.60
2022-09-20T15:17:21.726Z,49.50
2022-09-20T15:19:50.071Z,42.60
2022-09-20T15:22:16.999Z,47.20
2022-09-20T15:24:44.089Z,46.90
2022-09-20T15:27:14.112Z,46.50
2022-09-20T15:29:40.943Z,43.80
2022-09-20T15:32:11.014Z,46.10
2022-09-20T15:34:38.231Z,45.70
2022-09-20T15:37:05.068Z,47.50
2022-09-20T15:39:31.904Z,48.50
2022-09-20T15:41:58.647Z,50.20
2022-09-20T15:44:25.670Z,50.20
2022-09-20T15:46:53.333Z,49.30
2022-09-20T15:49:21.636Z,49.10
2022-09-20T15:51:48.543Z,49.40
2022-09-20T15:54:15.672Z,49.50
2022-09-20T15:56:42.491Z,49.90
2022-09-20T15:59:11.740Z,50.10
2022-09-20T16:01:44.664Z,50.10
2022-09-20T16:04:20.611Z,46.20
2022-09-20T16:06:49.996Z,47.20
2022-09-20T16:09:18.260Z,50.70
2022-09-20T16:11:45.829Z,51.90
2022-09-20T16:14:12.977Z,52.60
2022-09-20T16:16:40.851Z,52.70
2022-09-20T16:19:23.720Z,52.40
2022-09-20T16:21:59.142Z,52.80
2022-09-20T16:24:33.946Z,52.50
2022-09-20T16:27:07.055Z,52.50
2022-09-20T16:29:34.528Z,52.70
2022-09-20T16:32:03.495Z,53.60
2022-09-20T16:34:34.417Z,54.00
2022-09-20T16:37:03.641Z,54.00
2022-09-20T16:39:31.658Z,51.30
2022-09-20T16:42:03.562Z,56.30
2022-09-20T16:44:36.202Z,56.40
2022-09-20T16:47:08.817Z,57.30
2022-09-20T16:49:36.752Z,58.00
2022-09-20T16:52:09.193Z,58.60
2022-09-20T16:54:36.331Z,58.00
2022-09-20T16:57:03.630Z,59.30
2022-09-20T16:59:31.065Z,59.50
2022-09-20T17:01:57.956Z,59.70
2022-09-20T17:04:24.796Z,59.90
2022-09-20T17:06:52.148Z,60.10
2022-09-20T17:09:19.114Z,60.30
2022-09-20T17:11:50.078Z,60.60
2022-09-20T17:14:20.355Z,60.70
2022-09-20T17:16:48.047Z,60.90
2022-09-20T17:19:19.171Z,61.20
2022-09-20T17:21:50.107Z,61.20
2022-09-20T17:24:22.542Z,61.40
2022-09-20T17:26:50.790Z,60.90
2022-09-20T17:29:20.239Z,61.80
2022-09-20T17:31:54.937Z,61.80
2022-09-20T17:34:22.897Z,62.00
2022-09-20T17:36:50.740Z,62.30
2022-09-20T17:39:18.551Z,62.50
2022-09-20T17:41:50.615Z,62.60
2022-09-20T17:44:17.752Z,62.10
2022-09-20T17:46:47.971Z,63.00
2022-09-20T17:49:20.862Z,62.80
2022-09-20T17:51:53.976Z,62.80
2022-09-20T17:54:22.359Z,62.70
2022-09-20T17:56:52.200Z,63.00
2022-09-20T17:59:20.594Z,63.10
2022-09-20T18:01:50.535Z,63.20
2022-09-20T18:04:18.214Z,62.90
2022-09-20T18:06:51.116Z,63.20
2022-09-20T18:09:22.186Z,63.10
2022-09-20T18:11:52.788Z,63.20
2022-09-20T18:14:28.324Z,63.50
2022-09-20T18:17:00.748Z,62.60
2022-09-20T18:19:32.834Z,63.80
2022-09-20T18:22:03.329Z,64.00
2022-09-20T18:24:30.526Z,64.10
2022-09-20T18:26:57.417Z,64.30
2022-09-20T18:29:25.062Z,64.30
2022-09-20T18:31:54.620Z,64.40
2022-09-20T18:34:24.774Z,64.40
2022-09-20T18:36:55.914Z,64.60
2022-09-20T18:39:24.867Z,64.60
2022-09-20T18:41:52.985Z,64.90
2022-09-20T18:44:21.593Z,65.00
2022-09-20T18:46:53.352Z,65.00
2022-09-20T18:49:21.634Z,65.10
2022-09-20T18:51:49.820Z,65.10
2022-09-20T18:54:17.853Z,65.00
2022-09-20T18:56:48.699Z,65.00
2022-09-20T18:59:19.498Z,64.80
2022-09-20T19:01:58.597Z,62.50
2022-09-20T19:04:37.409Z,63.90
2022-09-20T19:07:22.040Z,65.10
2022-09-20T19:10:03.836Z,65.10
2022-09-20T19:13:12.911Z,63.90
2022-09-20T19:16:02.281Z,64.70
2022-09-20T19:19:09.072Z,64.40
2022-09-20T19:21:51.963Z,64.30
2022-09-20T19:24:46.217Z,64.90
2022-09-20T19:27:14.644Z,64.10
2022-09-20T19:29:42.195Z,65.90
2022-09-20T19:32:18.745Z,66.00
2022-09-20T19:34:46.800Z,64.60
2022-09-20T19:38:17.788Z,65.90
2022-09-20T19:41:20.554Z,63.20
2022-09-20T19:44:21.394Z,63.70
2022-09-20T19:47:12.050Z,63.70
2022-09-20T19:50:15.813Z,63.60
2022-09-20T19:52:44.176Z,63.60
2022-09-20T19:55:14.710Z,66.20
2022-09-20T19:57:47.230Z,65.50
2022-09-20T20:00:20.725Z,65.30
2022-09-20T20:02:48.635Z,65.30
2022-09-20T20:05:19.558Z,66.20
2022-09-20T20:07:56.719Z,65.90
2022-09-20T20:10:38.467Z,63.70
2022-09-20T20:14:01.615Z,65.40
2022-09-20T20:16:58.387Z,64.30
2022-09-20T20:19:43.682Z,64.30
2022-09-20T20:22:33.797Z,66.50
2022-09-20T20:25:00.821Z,66.00
2022-09-20T20:27:32.459Z,66.60
2022-09-20T20:29:59.697Z,67.10
2022-09-20T20:32:26.613Z,66.60
2022-09-20T20:34:53.392Z,66.50
2022-09-20T20:37:23.908Z,66.50
2022-09-20T20:39:50.723Z,66.60
2022-09-20T20:42:17.558Z,66.70
2022-09-20T20:44:44.308Z,66.70
2022-09-20T20:47:11.313Z,66.60
2022-09-20T20:49:38.782Z,66.40
2022-09-20T20:52:05.789Z,66.40
2022-09-20T20:54:32.851Z,66.40
2022-09-20T20:56:59.848Z,66.40
2022-09-20T20:59:26.834Z,66.30
2022-09-20T21:01:53.880Z,66.20
2022-09-20T21:04:21.636Z,66.30
2022-09-20T21:06:50.106Z,66.50
2022-09-20T21:09:17.045Z,66.60
2022-09-20T21:11:44.253Z,66.90
2022-09-20T21:14:12.662Z,67.30
2022-09-20T21:16:43.277Z,67.40
2022-09-20T21:19:16.735Z,67.50
2022-09-20T21:21:46.344Z,67.90
2022-09-20T21:24:17.224Z,68.00
2022-09-20T21:26:46.455Z,67.90
2022-09-20T21:29:15.844Z,67.90
2022-09-20T21:31:45.869Z,67.90
2022-09-20T21:34:15.553Z,67.90
2022-09-20T21:36:44.530Z,68.00
2022-09-20T21:39:15.247Z,68.10
2022-09-20T21:41:42.152Z,67.70
2022-09-20T21:44:12.126Z,68.00
2022-09-20T21:46:41.477Z,67.80
2022-09-20T21:49:11.351Z,67.50
2022-09-20T21:51:41.883Z,67.30
2022-09-20T21:54:09.722Z,67.30
2022-09-20T21:56:38.717Z,67.30
2022-09-20T21:59:07.621Z,67.20
2022-09-20T22:01:38.541Z,67.20
2022-09-20T22:04:11.107Z,67.20
2022-09-20T22:06:42.161Z,67.30
2022-09-20T22:09:17.827Z,67.50
2022-09-20T22:11:47.937Z,67.30
2022-09-20T22:14:18.213Z,67.80
2022-09-20T22:16:47.161Z,68.40
2022-09-20T22:19:16.998Z,68.00
2022-09-20T22:21:47.155Z,68.00
2022-09-20T22:24:15.827Z,68.10
2022-09-20T22:26:50.745Z,68.20
2022-09-20T22:29:18.806Z,68.00
2022-09-20T22:31:47.733Z,68.60
2022-09-20T22:34:21.032Z,68.70
2022-09-20T22:36:48.170Z,68.70
2022-09-20T22:39:15.775Z,68.90
2022-09-20T22:41:43.533Z,69.00
2022-09-20T22:44:11.471Z,69.10
2022-09-20T22:46:39.364Z,69.20
2022-09-20T22:49:08.337Z,69.30
2022-09-20T22:51:35.920Z,69.50
2022-09-20T22:54:09.109Z,69.50
2022-09-20T22:56:36.688Z,69.20
2022-09-20T22:59:10.763Z,69.60
2022-09-20T23:01:43.997Z,69.60
2022-09-20T23:04:15.005Z,69.40
2022-09-20T23:06:49.228Z,69.70
2022-09-20T23:09:18.220Z,68.80
2022-09-20T23:11:45.680Z,69.70
2022-09-20T23:14:16.436Z,69.80
2022-09-20T23:16:44.160Z,69.90
2022-09-20T23:19:12.439Z,70.10
2022-09-20T23:21:41.742Z,70.10
2022-09-20T23:24:12.676Z,70.20
2022-09-20T23:26:40.587Z,70.20
2022-09-20T23:29:14.079Z,68.90
2022-09-20T23:31:45.833Z,69.90
2022-09-20T23:34:17.882Z,70.70
2022-09-20T23:36:45.434Z,70.40
2022-09-20T23:39:13.919Z,70.40
2022-09-20T23:41:41.648Z,70.50
2022-09-20T23:44:11.406Z,70.60
2022-09-20T23:46:39.005Z,70.60
2022-09-20T23:49:07.160Z,70.70
2022-09-20T23:51:37.400Z,70.70
2022-09-20T23:54:04.510Z,70.80
2022-09-20T23:56:32.010Z,70.80
2022-09-20T23:58:58.840Z,70.80
